createdAt,value
2019-05-09T00:01:26.362Z,10.05
2019-05-09T00:06:24.751Z,9.75
2019-05-09T00:08:54.590Z,10.58
2019-05-09T00:11:24.706Z,11.68
2019-05-09T00:13:54.676Z,11.18
2019-05-09T00:16:24.465Z,10.65
2019-05-09T00:18:54.338Z,9.33
2019-05-09T00:21:39.168Z,10.82
2019-05-09T00:24:09.035Z,10.93
2019-05-09T00:26:38.889Z,10.55
2019-05-09T00:29:17.086Z,10.80
2019-05-09T00:32:03.551Z,11.28
2019-05-09T00:34:53.234Z,11.83
2019-05-09T00:37:43.189Z,10.90
2019-05-09T00:40:13.331Z,11.28
2019-05-09T00:42:44.030Z,11.40
2019-05-09T00:45:33.368Z,11.12
2019-05-09T00:48:03.624Z,10.60
2019-05-09T00:50:34.126Z,9.95
2019-05-09T00:53:04.098Z,9.88
2019-05-09T00:55:33.952Z,10.32
2019-05-09T00:58:04.326Z,9.73
2019-05-09T01:00:34.415Z,9.13
2019-05-09T01:03:04.239Z,8.33
2019-05-09T01:05:34.266Z,7.45
2019-05-09T01:08:05.715Z,7.95
2019-05-09T01:13:04.207Z,6.60
2019-05-09T01:15:33.994Z,5.60
2019-05-09T01:18:04.423Z,5.85
2019-05-09T01:20:34.490Z,4.75
2019-05-09T01:23:04.305Z,4.65
2019-05-09T01:25:34.050Z,4.53
2019-05-09T01:28:03.868Z,4.37
2019-05-09T01:30:33.776Z,3.72
2019-05-09T01:33:16.557Z,4.10
2019-05-09T01:35:46.343Z,4.28
2019-05-09T01:38:16.149Z,4.40
2019-05-09T01:40:45.914Z,4.12
2019-05-09T01:43:15.724Z,4.25
2019-05-09T01:45:47.191Z,4.83
2019-05-09T01:48:17.140Z,4.25
2019-05-09T01:50:46.875Z,4.45
2019-05-09T01:53:20.516Z,4.70
2019-05-09T01:55:59.887Z,4.40
2019-05-09T01:58:34.250Z,4.72
2019-05-09T02:01:07.456Z,4.33
2019-05-09T02:03:37.295Z,3.52
2019-05-09T02:06:07.468Z,4.40
2019-05-09T02:08:37.250Z,3.75
2019-05-09T02:11:07.061Z,2.77
2019-05-09T02:13:36.833Z,2.58
2019-05-09T02:16:37.584Z,2.50
2019-05-09T02:19:26.287Z,2.87
2019-05-09T02:21:56.068Z,2.62
2019-05-09T02:24:25.844Z,2.40
2019-05-09T02:26:55.660Z,2.10
2019-05-09T02:29:25.430Z,1.98
2019-05-09T02:31:55.231Z,1.80
2019-05-09T02:34:25.157Z,2.12
2019-05-09T02:36:55.105Z,2.10
2019-05-09T02:39:24.853Z,1.92
2019-05-09T02:42:07.685Z,2.22
2019-05-09T02:44:28.832Z,1.98
2019-05-09T02:49:31.824Z,1.75
2019-05-09T02:52:01.606Z,1.95
2019-05-09T02:54:31.378Z,2.20
2019-05-09T02:57:01.229Z,2.10
2019-05-09T02:59:49.867Z,2.55
2019-05-09T03:02:44.529Z,2.40
2019-05-09T03:05:14.295Z,2.50
2019-05-09T03:07:50.127Z,2.72
2019-05-09T03:10:21.009Z,2.27
2019-05-09T03:12:51.141Z,2.30
2019-05-09T03:15:21.229Z,2.30
2019-05-09T03:17:51.036Z,2.52
2019-05-09T03:20:39.019Z,2.62
2019-05-09T03:23:09.071Z,2.37
2019-05-09T03:28:18.392Z,2.10
2019-05-09T03:30:50.340Z,2.52
2019-05-09T03:33:20.459Z,2.62
2019-05-09T03:35:50.407Z,2.92
2019-05-09T03:38:20.143Z,3.10
2019-05-09T03:40:49.970Z,3.10
2019-05-09T03:43:19.732Z,3.35
2019-05-09T03:45:55.741Z,3.40
2019-05-09T03:48:31.290Z,3.10
2019-05-09T03:51:01.120Z,3.60
2019-05-09T03:53:30.860Z,4.10
2019-05-09T03:56:02.983Z,3.55
2019-05-09T03:58:32.925Z,3.62
2019-05-09T04:01:02.691Z,3.85
2019-05-09T04:03:32.472Z,4.10
2019-05-09T04:06:03.116Z,4.22
2019-05-09T04:08:33.023Z,3.52
2019-05-09T04:11:02.841Z,4.05
2019-05-09T04:13:40.036Z,3.92
2019-05-09T04:16:09.816Z,4.17
2019-05-09T04:18:40.291Z,4.25
2019-05-09T04:21:10.321Z,4.50
2019-05-09T04:23:40.138Z,4.12
2019-05-09T04:26:32.092Z,4.85
2019-05-09T04:29:01.870Z,4.53
2019-05-09T04:31:31.707Z,4.67
2019-05-09T04:34:01.447Z,4.65
2019-05-09T04:36:40.545Z,4.60
2019-05-09T04:39:20.985Z,4.20
2019-05-09T04:41:43.917Z,4.65
2019-05-09T04:44:28.211Z,4.17
2019-05-09T04:47:00.045Z,4.58
2019-05-09T04:49:30.056Z,4.53
2019-05-09T04:54:28.765Z,4.70
2019-05-09T04:56:58.564Z,4.35
2019-05-09T04:59:28.569Z,4.60
2019-05-09T05:02:18.111Z,4.12
2019-05-09T05:04:48.043Z,4.20
2019-05-09T05:07:18.231Z,4.53
2019-05-09T05:09:48.493Z,4.92
2019-05-09T05:12:18.640Z,5.22
2019-05-09T05:14:48.602Z,4.70
2019-05-09T05:17:18.365Z,4.60
2019-05-09T05:19:48.754Z,4.40
2019-05-09T05:22:29.095Z,4.72
2019-05-09T05:25:03.360Z,4.78
2019-05-09T05:27:33.111Z,4.62
2019-05-09T05:30:02.881Z,4.72
2019-05-09T05:32:38.689Z,5.28
2019-05-09T05:35:28.453Z,4.97
2019-05-09T05:37:58.322Z,5.10
2019-05-09T05:40:32.820Z,5.12
2019-05-09T05:42:59.574Z,5.15
2019-05-09T05:45:31.226Z,5.37
2019-05-09T05:48:09.007Z,5.70
2019-05-09T05:50:38.743Z,5.92
2019-05-09T05:53:08.570Z,7.10
2019-05-09T05:55:38.344Z,5.80
2019-05-09T05:58:08.724Z,6.30
2019-05-09T06:00:38.637Z,7.03
2019-05-09T06:03:08.884Z,7.00
2019-05-09T06:05:38.817Z,7.67
2019-05-09T06:08:08.652Z,7.42
2019-05-09T06:10:38.838Z,6.92
2019-05-09T06:13:08.661Z,6.95
2019-05-09T06:15:38.586Z,7.22
2019-05-09T06:18:08.370Z,6.90
2019-05-09T06:20:38.663Z,7.28
2019-05-09T06:23:08.751Z,6.58
2019-05-09T06:25:38.930Z,6.70
2019-05-09T06:28:09.024Z,6.23
2019-05-09T06:30:41.154Z,5.62
2019-05-09T06:33:10.242Z,5.60
2019-05-09T06:35:40.043Z,5.40
2019-05-09T06:38:09.813Z,4.90
2019-05-09T06:40:39.638Z,4.80
2019-05-09T06:43:19.724Z,4.70
2019-05-09T06:46:08.083Z,4.60
2019-05-09T06:48:38.178Z,4.25
2019-05-09T06:51:07.977Z,4.40
2019-05-09T06:53:38.149Z,3.60
2019-05-09T06:56:08.038Z,3.30
2019-05-09T06:58:38.499Z,3.45
2019-05-09T07:01:18.248Z,2.92
2019-05-09T07:03:49.745Z,3.27
2019-05-09T07:09:02.639Z,2.95
2019-05-09T07:11:32.391Z,2.55
2019-05-09T07:14:02.177Z,2.25
2019-05-09T07:16:31.932Z,3.20
2019-05-09T07:19:01.740Z,2.40
2019-05-09T07:21:48.997Z,2.20
2019-05-09T07:24:19.720Z,2.12
2019-05-09T07:26:49.506Z,2.15
2019-05-09T07:29:19.290Z,1.72
2019-05-09T07:31:53.765Z,1.85
2019-05-09T07:34:40.345Z,1.92
2019-05-09T07:37:10.092Z,1.80
2019-05-09T07:39:39.917Z,1.82
2019-05-09T07:42:09.680Z,1.77
2019-05-09T07:44:48.394Z,1.60
2019-05-09T07:47:10.931Z,1.77
2019-05-09T07:49:40.723Z,1.70
2019-05-09T07:52:10.671Z,1.80
2019-05-09T07:54:40.524Z,1.87
2019-05-09T07:57:10.262Z,1.75
2019-05-09T07:59:40.043Z,2.10
2019-05-09T08:02:10.027Z,2.12
2019-05-09T08:04:39.970Z,1.90
2019-05-09T08:07:09.785Z,1.98
2019-05-09T08:09:39.534Z,2.08
2019-05-09T08:12:09.316Z,2.12
2019-05-09T08:14:39.086Z,1.82
2019-05-09T08:17:08.859Z,2.00
2019-05-09T08:19:38.732Z,1.42
2019-05-09T08:22:08.507Z,1.62
2019-05-09T08:24:38.263Z,1.50
2019-05-09T08:27:08.688Z,1.80
2019-05-09T08:29:38.881Z,1.85
2019-05-09T08:32:08.705Z,1.95
2019-05-09T08:34:38.493Z,1.75
2019-05-09T08:37:08.364Z,2.22
2019-05-09T08:39:38.437Z,2.08
2019-05-09T08:42:08.789Z,1.92
2019-05-09T08:44:41.987Z,1.90
2019-05-09T08:47:10.155Z,1.40
2019-05-09T08:49:58.849Z,1.60
2019-05-09T08:52:28.864Z,1.72
2019-05-09T08:54:59.038Z,1.47
2019-05-09T08:57:29.024Z,1.15
2019-05-09T08:59:59.137Z,1.80
2019-05-09T09:02:29.096Z,1.32
2019-05-09T09:04:59.101Z,1.70
2019-05-09T09:07:29.760Z,1.37
2019-05-09T09:09:59.791Z,1.35
2019-05-09T09:12:34.109Z,1.17
2019-05-09T09:15:01.029Z,1.90
2019-05-09T09:17:30.809Z,1.87
2019-05-09T09:20:00.585Z,1.55
2019-05-09T09:22:30.411Z,1.47
2019-05-09T09:25:00.168Z,1.60
2019-05-09T09:27:30.332Z,1.05
2019-05-09T09:30:15.523Z,1.50
2019-05-09T09:32:31.551Z,1.00
2019-05-09T09:35:01.345Z,1.27
2019-05-09T09:37:44.986Z,1.65
2019-05-09T09:40:02.624Z,1.20
2019-05-09T09:42:32.460Z,1.32
2019-05-09T09:45:02.165Z,1.10
2019-05-09T09:47:31.964Z,2.00
2019-05-09T09:50:01.766Z,1.30
2019-05-09T09:52:34.288Z,1.42
2019-05-09T09:55:03.026Z,1.30
2019-05-09T09:57:32.805Z,1.05
2019-05-09T10:00:26.588Z,2.22
2019-05-09T10:02:58.577Z,1.30
2019-05-09T10:05:27.886Z,0.95
2019-05-09T10:07:58.264Z,1.12
2019-05-09T10:10:36.330Z,2.10
2019-05-09T10:13:10.517Z,1.72
2019-05-09T10:15:53.382Z,1.50
2019-05-09T10:18:30.765Z,1.70
2019-05-09T10:21:08.996Z,1.87
2019-05-09T10:23:38.801Z,1.72
2019-05-09T10:26:08.751Z,1.75
2019-05-09T10:28:38.478Z,1.70
2019-05-09T10:31:08.278Z,1.67
2019-05-09T10:33:38.019Z,1.42
2019-05-09T10:36:08.446Z,1.40
2019-05-09T10:38:38.806Z,1.75
2019-05-09T10:41:11.365Z,1.45
2019-05-09T10:44:08.499Z,1.40
2019-05-09T10:47:09.401Z,1.20
2019-05-09T10:49:39.235Z,1.27
2019-05-09T10:52:08.992Z,1.42
2019-05-09T10:54:38.752Z,1.10
2019-05-09T10:57:08.546Z,1.32
2019-05-09T10:59:38.287Z,1.52
2019-05-09T11:02:09.525Z,1.15
2019-05-09T11:04:42.907Z,1.20
2019-05-09T11:07:11.034Z,1.02
2019-05-09T11:09:40.817Z,1.17
2019-05-09T11:12:10.613Z,1.30
2019-05-09T11:14:40.361Z,1.12
2019-05-09T11:17:18.154Z,1.07
2019-05-09T11:19:41.570Z,1.12
2019-05-09T11:22:11.381Z,1.10
2019-05-09T11:24:46.586Z,1.40
2019-05-09T11:27:12.735Z,1.30
2019-05-09T11:29:46.100Z,1.45
2019-05-09T11:32:14.279Z,1.10
2019-05-09T11:34:44.036Z,1.40
2019-05-09T11:37:13.853Z,1.45
2019-05-09T11:39:43.597Z,0.90
2019-05-09T11:42:13.433Z,1.40
2019-05-09T11:44:43.261Z,1.12
2019-05-09T11:47:30.901Z,0.80
2019-05-09T11:49:44.550Z,1.67
2019-05-09T11:52:14.591Z,1.30
2019-05-09T11:54:44.560Z,1.30
2019-05-09T11:57:14.431Z,1.60
2019-05-09T11:59:44.237Z,1.27
2019-05-09T12:02:14.108Z,1.02
2019-05-09T12:04:44.073Z,1.12
2019-05-09T12:07:14.199Z,1.00
2019-05-09T12:09:44.355Z,1.70
2019-05-09T12:12:14.254Z,0.90
2019-05-09T12:14:48.221Z,1.00
2019-05-09T12:17:19.697Z,1.30
2019-05-09T12:19:49.457Z,1.20
2019-05-09T12:22:19.616Z,0.93
2019-05-09T12:24:49.522Z,0.93
2019-05-09T12:27:19.352Z,0.98
2019-05-09T12:29:49.975Z,0.80
2019-05-09T12:32:20.924Z,1.17
2019-05-09T12:34:52.919Z,1.00
2019-05-09T12:37:24.190Z,1.00
2019-05-09T12:39:55.525Z,1.00
2019-05-09T12:42:29.046Z,1.27
2019-05-09T12:44:59.119Z,2.17
2019-05-09T12:50:02.772Z,1.10
2019-05-09T12:52:32.310Z,1.25
2019-05-09T12:55:02.340Z,1.12
2019-05-09T12:57:33.636Z,0.98
2019-05-09T13:00:03.634Z,1.10
2019-05-09T13:02:34.275Z,1.00
2019-05-09T13:05:04.247Z,1.10
2019-05-09T13:07:34.350Z,1.10
2019-05-09T13:10:04.662Z,0.90
2019-05-09T13:12:34.464Z,1.00
2019-05-09T13:15:04.439Z,1.10
2019-05-09T13:17:38.429Z,1.40
2019-05-09T13:20:09.992Z,1.00
2019-05-09T13:22:39.807Z,1.45
2019-05-09T13:25:10.031Z,0.82
2019-05-09T13:27:39.849Z,1.50
2019-05-09T13:30:10.504Z,1.05
2019-05-09T13:32:40.483Z,1.05
2019-05-09T13:35:11.531Z,1.00
2019-05-09T13:37:42.319Z,0.90
2019-05-09T13:40:12.335Z,1.00
2019-05-09T13:42:42.585Z,1.10
2019-05-09T13:45:13.483Z,1.00
2019-05-09T13:47:43.292Z,0.98
2019-05-09T13:50:13.287Z,0.98
2019-05-09T13:52:43.073Z,1.37
2019-05-09T13:55:12.886Z,1.00
2019-05-09T13:57:42.915Z,0.82
2019-05-09T14:00:12.711Z,1.27
2019-05-09T14:02:44.982Z,1.50
2019-05-09T14:05:14.266Z,0.90
2019-05-09T14:07:44.061Z,1.50
2019-05-09T14:10:13.882Z,1.50
2019-05-09T14:12:44.034Z,1.02
2019-05-09T14:15:14.423Z,1.17
2019-05-09T14:17:52.419Z,0.90
2019-05-09T14:20:18.048Z,0.98
2019-05-09T14:22:49.128Z,0.88
2019-05-09T14:25:20.018Z,1.10
2019-05-09T14:27:52.371Z,0.90
2019-05-09T14:30:23.224Z,1.27
2019-05-09T14:32:53.667Z,1.12
2019-05-09T14:35:23.995Z,1.05
2019-05-09T14:37:55.731Z,0.93
2019-05-09T14:40:28.119Z,1.27
2019-05-09T14:42:59.866Z,1.35
2019-05-09T14:45:31.451Z,0.98
2019-05-09T14:48:01.547Z,0.93
2019-05-09T14:50:32.274Z,0.80
2019-05-09T14:53:02.181Z,0.90
2019-05-09T14:55:32.264Z,1.25
2019-05-09T14:58:02.084Z,1.15
2019-05-09T15:00:32.031Z,0.95
2019-05-09T15:03:02.361Z,1.07
2019-05-09T15:05:32.123Z,1.20
2019-05-09T15:08:01.952Z,1.07
2019-05-09T15:10:31.730Z,1.30
2019-05-09T15:13:02.114Z,1.15
2019-05-09T15:15:32.877Z,0.90
2019-05-09T15:18:03.084Z,0.90
2019-05-09T15:20:34.475Z,1.22
2019-05-09T15:23:08.458Z,1.15
2019-05-09T15:25:37.861Z,1.20
2019-05-09T15:28:08.478Z,0.95
2019-05-09T15:30:39.552Z,1.05
2019-05-09T15:33:09.537Z,1.35
2019-05-09T15:35:39.487Z,0.80
2019-05-09T15:38:09.941Z,1.42
2019-05-09T15:40:40.621Z,1.60
2019-05-09T15:43:11.479Z,1.02
2019-05-09T15:45:58.204Z,1.40
2019-05-09T15:48:27.699Z,1.20
2019-05-09T15:50:58.347Z,1.42
2019-05-09T15:53:29.727Z,1.75
2019-05-09T15:56:01.232Z,1.20
2019-05-09T15:58:32.745Z,1.65
2019-05-09T16:01:04.547Z,1.10
2019-05-09T16:03:38.208Z,1.17
2019-05-09T16:06:10.320Z,1.20
2019-05-09T16:08:41.898Z,1.30
2019-05-09T16:11:13.223Z,1.17
2019-05-09T16:13:44.912Z,1.30
2019-05-09T16:16:17.569Z,1.30
2019-05-09T16:18:50.081Z,1.00
2019-05-09T16:21:22.153Z,1.25
2019-05-09T16:23:55.763Z,1.20
2019-05-09T16:26:29.124Z,1.10
2019-05-09T16:29:02.350Z,2.05
2019-05-09T16:31:34.490Z,1.10
2019-05-09T16:34:09.176Z,1.17
2019-05-09T16:36:40.178Z,1.10
2019-05-09T16:39:13.326Z,1.00
2019-05-09T16:41:48.061Z,1.10
2019-05-09T16:44:19.519Z,1.22
2019-05-09T16:46:51.869Z,1.60
2019-05-09T16:49:25.793Z,1.55
2019-05-09T16:51:58.504Z,1.50
2019-05-09T16:54:35.129Z,1.45
2019-05-09T16:57:08.288Z,1.22
2019-05-09T16:59:40.646Z,1.20
2019-05-09T17:02:21.331Z,1.00
2019-05-09T17:04:46.977Z,1.10
2019-05-09T17:07:19.452Z,0.98
2019-05-09T17:09:51.805Z,1.35
2019-05-09T17:12:26.154Z,1.55
2019-05-09T17:14:59.713Z,1.90
2019-05-09T17:17:33.453Z,2.05
2019-05-09T17:20:05.714Z,2.62
2019-05-09T17:23:08.370Z,2.10
2019-05-09T17:25:29.055Z,2.33
2019-05-09T17:28:02.918Z,1.42
2019-05-09T17:30:38.066Z,1.10
2019-05-09T17:33:09.239Z,0.85
2019-05-09T17:35:41.790Z,0.90
2019-05-09T17:38:14.067Z,0.68
2019-05-09T17:40:48.499Z,0.70
2019-05-09T17:43:20.772Z,0.70
2019-05-09T17:45:53.144Z,0.68
2019-05-09T17:48:28.569Z,0.70
2019-05-09T17:51:00.866Z,0.72
2019-05-09T17:53:34.028Z,1.77
2019-05-09T17:56:10.879Z,1.12
2019-05-09T17:58:42.499Z,1.70
2019-05-09T18:01:17.899Z,1.92
2019-05-09T18:03:53.308Z,1.70
2019-05-09T18:06:28.028Z,1.72
2019-05-09T18:08:59.702Z,2.25
2019-05-09T18:11:32.098Z,3.87
2019-05-09T18:14:07.848Z,3.47
2019-05-09T18:16:40.334Z,2.92
2019-05-09T18:19:13.855Z,3.33
2019-05-09T18:21:51.033Z,3.65
2019-05-09T18:24:21.970Z,3.20
2019-05-09T18:26:55.091Z,2.85
2019-05-09T18:29:30.159Z,3.77
2019-05-09T18:32:22.443Z,2.75
2019-05-09T18:35:04.596Z,3.70
2019-05-09T18:37:37.925Z,2.95
2019-05-09T18:40:10.628Z,2.80
2019-05-09T18:42:43.027Z,2.33
2019-05-09T18:45:17.519Z,2.08
2019-05-09T18:47:51.168Z,1.30
2019-05-09T18:50:26.284Z,1.02
2019-05-09T18:53:03.103Z,0.98
2019-05-09T18:55:36.941Z,1.00
2019-05-09T18:58:09.709Z,1.10
2019-05-09T19:00:42.679Z,1.10
2019-05-09T19:03:17.893Z,1.20
2019-05-09T19:05:50.986Z,1.07
2019-05-09T19:08:24.995Z,1.12
2019-05-09T19:10:58.617Z,1.20
2019-05-09T19:13:33.389Z,1.40
2019-05-09T19:16:12.940Z,1.15
2019-05-09T19:19:11.344Z,1.17
2019-05-09T19:21:51.818Z,1.27
2019-05-09T19:24:28.825Z,0.87
2019-05-09T19:27:09.578Z,1.67
2019-05-09T19:29:41.965Z,1.30
2019-05-09T19:32:15.054Z,1.42
2019-05-09T19:34:48.563Z,1.10
2019-05-09T19:37:21.745Z,1.20
2019-05-09T19:39:54.157Z,1.47
2019-05-09T19:42:28.530Z,1.77
2019-05-09T19:45:00.915Z,1.20
2019-05-09T19:47:33.383Z,1.20
2019-05-09T19:50:06.130Z,1.00
2019-05-09T19:52:39.425Z,1.02
2019-05-09T19:55:13.057Z,1.30
2019-05-09T19:57:45.506Z,1.20
2019-05-09T20:00:19.999Z,1.20
2019-05-09T20:02:53.644Z,1.40
2019-05-09T20:05:26.556Z,1.30
2019-05-09T20:08:00.267Z,1.20
2019-05-09T20:10:51.127Z,1.10
2019-05-09T20:13:36.441Z,1.42
2019-05-09T20:16:08.856Z,1.00
2019-05-09T20:18:45.242Z,1.02
2019-05-09T20:21:17.675Z,1.05
2019-05-09T20:23:50.816Z,1.45
2019-05-09T20:26:23.132Z,1.50
2019-05-09T20:28:55.486Z,1.62
2019-05-09T20:31:30.711Z,1.42
2019-05-09T20:34:03.098Z,1.02
2019-05-09T20:36:35.305Z,2.02
2019-05-09T20:39:09.060Z,1.17
2019-05-09T20:41:41.264Z,1.20
2019-05-09T20:44:13.635Z,1.27
2019-05-09T20:46:46.039Z,1.42
2019-05-09T20:49:18.364Z,1.30
2019-05-09T20:51:50.624Z,1.27
2019-05-09T20:54:23.096Z,1.37
2019-05-09T20:56:55.032Z,1.22
2019-05-09T20:59:27.326Z,1.15
2019-05-09T21:01:59.585Z,1.17
2019-05-09T21:04:31.495Z,1.35
2019-05-09T21:07:03.266Z,1.10
2019-05-09T21:09:35.370Z,1.50
2019-05-09T21:12:06.769Z,1.10
2019-05-09T21:17:08.858Z,1.40
2019-05-09T21:19:39.982Z,1.20
2019-05-09T21:22:10.098Z,1.40
2019-05-09T21:24:40.849Z,1.20
2019-05-09T21:27:11.180Z,1.30
2019-05-09T21:29:41.235Z,1.25
2019-05-09T21:32:11.255Z,1.72
2019-05-09T21:34:41.213Z,1.60
2019-05-09T21:37:13.804Z,1.40
2019-05-09T21:39:42.406Z,1.50
2019-05-09T21:42:12.268Z,1.27
2019-05-09T21:44:42.078Z,1.30
2019-05-09T21:47:11.882Z,1.40
2019-05-09T21:49:41.646Z,1.40
2019-05-09T21:52:11.452Z,1.20
2019-05-09T21:54:41.218Z,1.40
2019-05-09T21:57:11.020Z,1.35
2019-05-09T21:59:40.833Z,1.75
2019-05-09T22:02:11.157Z,1.60
2019-05-09T22:04:40.915Z,1.10
2019-05-09T22:07:10.724Z,1.95
2019-05-09T22:09:40.500Z,1.60
2019-05-09T22:12:10.346Z,1.67
2019-05-09T22:14:40.071Z,1.55
2019-05-09T22:17:14.613Z,1.57
2019-05-09T22:19:44.460Z,1.45
2019-05-09T22:22:14.753Z,1.67
2019-05-09T22:24:44.533Z,1.60
2019-05-09T22:27:14.325Z,1.92
2019-05-09T22:29:44.078Z,2.50
2019-05-09T22:32:13.861Z,1.85
2019-05-09T22:34:43.637Z,1.52
2019-05-09T22:37:13.550Z,1.70
2019-05-09T22:39:43.355Z,1.90
2019-05-09T22:42:13.165Z,2.40
2019-05-09T22:44:42.930Z,2.55
2019-05-09T22:47:12.724Z,1.80
2019-05-09T22:49:42.486Z,1.70
2019-05-09T22:52:12.288Z,1.65
2019-05-09T22:54:42.054Z,2.50
2019-05-09T22:57:11.861Z,2.20
2019-05-09T22:59:41.704Z,2.30
2019-05-09T23:02:11.514Z,2.25
2019-05-09T23:04:41.255Z,2.40
2019-05-09T23:07:11.056Z,2.10
2019-05-09T23:09:40.830Z,2.70
2019-05-09T23:12:10.585Z,2.70
2019-05-09T23:14:40.393Z,2.90
2019-05-09T23:17:10.784Z,3.30
2019-05-09T23:19:40.542Z,3.17
2019-05-09T23:22:10.899Z,4.33
2019-05-09T23:24:42.842Z,2.50
2019-05-09T23:27:14.418Z,3.10
2019-05-09T23:29:44.168Z,3.17
2019-05-09T23:32:32.824Z,3.20
2019-05-09T23:35:03.010Z,3.22
2019-05-09T23:37:32.836Z,2.77
2019-05-09T23:40:02.593Z,3.08
2019-05-09T23:42:32.368Z,3.08
2019-05-09T23:45:02.179Z,3.10
2019-05-09T23:47:31.968Z,2.77
2019-05-09T23:50:01.863Z,3.05
2019-05-09T23:52:31.621Z,3.20
2019-05-09T23:55:18.899Z,2.80
2019-05-09T23:58:06.158Z,2.80
